Time;durP1;ratioP1;P1;durP2;ratioP2;P2;SDS_P1;SDS_P2;PMS_P1;PMS_P2;Temp;Humidity;BMP_temperature;BMP_pressure;BME280_temperature;BME280_humidity;BME280_pressure;Samples;Min_cycle;Max_cycle;Signal;HPM_P1;HPM_P2
2021/05/26 00:00:29;;;;;;;10.03;1.10;;;12.30;92.30;;;;;;5035917;28;20632;-66
2021/05/26 00:02:55;;;;;;;3.33;0.60;;;12.30;92.10;;;;;;5034513;28;20193;-65
2021/05/26 00:05:21;;;;;;;7.32;0.85;;;12.30;92.40;;;;;;5017893;28;20264;-67
2021/05/26 00:07:47;;;;;;;7.67;1.27;;;12.40;92.40;;;;;;5016333;28;20182;-66
2021/05/26 00:10:14;;;;;;;6.53;0.67;;;12.40;92.30;;;;;;5022367;28;20495;-65
2021/05/26 00:12:41;;;;;;;3.60;1.00;;;12.40;92.40;;;;;;5004009;28;20183;-66
2021/05/26 00:15:07;;;;;;;3.30;0.50;;;12.40;92.40;;;;;;5004665;28;20253;-65
2021/05/26 00:17:33;;;;;;;3.40;0.50;;;12.40;92.60;;;;;;5015759;28;20198;-65
2021/05/26 00:19:59;;;;;;;3.57;0.50;;;12.40;92.80;;;;;;4998052;28;20264;-67
2021/05/26 00:22:26;;;;;;;4.28;1.35;;;12.50;92.80;;;;;;4998117;28;20533;-67
2021/05/26 00:24:54;;;;;;;3.28;0.57;;;12.50;92.80;;;;;;5003210;28;20194;-67
2021/05/26 00:27:20;;;;;;;3.70;0.85;;;12.40;92.90;;;;;;5016058;28;20636;-65
2021/05/26 00:29:49;;;;;;;3.33;0.40;;;12.40;93.10;;;;;;5030467;28;20182;-64
2021/05/26 00:32:15;;;;;;;3.60;0.80;;;12.40;93.10;;;;;;5015471;28;20179;-66
2021/05/26 00:34:41;;;;;;;3.50;0.60;;;12.40;93.20;;;;;;4999551;28;20190;-66
2021/05/26 00:37:07;;;;;;;3.30;0.50;;;12.40;93.30;;;;;;5015404;28;20213;-66
2021/05/26 00:39:32;;;;;;;4.87;0.80;;;12.50;93.30;;;;;;5016418;28;20180;-65
2021/05/26 00:41:59;;;;;;;3.50;0.70;;;12.50;93.50;;;;;;5017182;28;20818;-66
2021/05/26 00:44:27;;;;;;;3.28;0.47;;;12.50;93.60;;;;;;5021480;28;20529;-66
2021/05/26 00:46:55;;;;;;;3.80;0.73;;;12.50;93.70;;;;;;5033639;28;20545;-66
2021/05/26 00:49:22;;;;;;;3.30;0.60;;;12.50;93.80;;;;;;5034543;28;20181;-67
2021/05/26 00:51:48;;;;;;;3.25;0.47;;;12.50;93.90;;;;;;5034541;28;20226;-65
2021/05/26 00:54:16;;;;;;;3.30;0.43;;;12.50;93.90;;;;;;5034290;28;20194;-66
2021/05/26 00:56:41;;;;;;;4.85;0.82;;;12.50;94.10;;;;;;5016471;28;20203;-66
2021/05/26 00:59:08;;;;;;;3.27;0.50;;;12.50;94.30;;;;;;5014089;28;20532;-68
2021/05/26 01:01:37;;;;;;;3.45;0.30;;;12.50;93.90;;;;;;5030855;28;20174;-66
2021/05/26 01:04:04;;;;;;;3.30;0.50;;;12.60;93.90;;;;;;5034072;28;20244;-66
2021/05/26 01:06:29;;;;;;;4.03;0.63;;;12.60;93.90;;;;;;5018141;28;20244;-65
2021/05/26 01:08:55;;;;;;;3.30;0.63;;;12.60;93.90;;;;;;4997210;28;20644;-66
2021/05/26 01:11:21;;;;;;;3.30;0.60;;;12.60;94.10;;;;;;5015813;28;20224;-65
2021/05/26 01:13:49;;;;;;;3.20;0.50;;;12.60;94.30;;;;;;5018987;28;20336;-66
2021/05/26 01:16:15;;;;;;;3.15;0.30;;;12.60;94.40;;;;;;5016719;28;20221;-66
2021/05/26 01:18:41;;;;;;;5.23;1.33;;;12.60;94.50;;;;;;5029518;28;20179;-66
2021/05/26 01:21:09;;;;;;;3.20;0.57;;;12.60;94.80;;;;;;5014440;28;20182;-66
2021/05/26 01:23:36;;;;;;;3.50;1.05;;;12.60;95.20;;;;;;5016789;28;20178;-65
2021/05/26 01:26:04;;;;;;;3.70;0.95;;;12.60;95.20;;;;;;5001586;28;20572;-66
2021/05/26 01:28:30;;;;;;;5.45;0.50;;;12.60;96.00;;;;;;5016639;28;20181;-66
2021/05/26 01:30:57;;;;;;;3.60;0.50;;;12.50;97.00;;;;;;5034150;28;20178;-68
2021/05/26 01:33:25;;;;;;;3.65;0.73;;;12.40;97.60;;;;;;5014084;28;20232;-67
2021/05/26 01:35:51;;;;;;;3.55;0.77;;;12.30;98.40;;;;;;5014434;28;20202;-66
2021/05/26 01:38:19;;;;;;;3.90;0.70;;;12.20;99.00;;;;;;5013248;28;20178;-66
2021/05/26 01:40:46;;;;;;;3.65;0.75;;;12.10;98.40;;;;;;5033956;28;20427;-66
2021/05/26 01:43:12;;;;;;;4.60;0.90;;;12.10;98.60;;;;;;5034408;28;20217;-66
2021/05/26 01:45:38;;;;;;;3.65;0.68;;;12.00;98.00;;;;;;5014624;28;20206;-66
2021/05/26 01:48:04;;;;;;;3.67;0.67;;;12.00;98.60;;;;;;5014437;28;20291;-66
2021/05/26 01:50:30;;;;;;;3.28;0.40;;;12.00;98.40;;;;;;5014550;28;20181;-66
2021/05/26 01:53:05;;;;;;;9.83;1.00;;;11.90;98.70;;;;;;4994260;28;20183;-65
2021/05/26 01:55:32;;;;;;;8.18;1.05;;;11.90;98.70;;;;;;5028408;28;20548;-65
2021/05/26 01:57:59;;;;;;;4.78;0.77;;;11.90;98.10;;;;;;5029700;28;20182;-66
2021/05/26 02:00:25;;;;;;;3.55;0.82;;;11.90;98.50;;;;;;4994690;28;20183;-66
2021/05/26 02:02:51;;;;;;;3.43;0.60;;;11.90;98.60;;;;;;4996306;28;20635;-67
2021/05/26 02:05:17;;;;;;;3.67;0.60;;;11.90;98.00;;;;;;5033698;28;20486;-66
2021/05/26 02:07:44;;;;;;;3.60;0.80;;;11.90;97.90;;;;;;5030367;28;20475;-65
2021/05/26 02:10:13;;;;;;;3.50;0.50;;;11.80;97.90;;;;;;4996436;28;20182;-66
2021/05/26 02:12:42;;;;;;;3.80;0.60;;;11.90;98.30;;;;;;5015188;28;20183;-66
2021/05/26 02:15:10;;;;;;;9.38;1.02;;;11.90;98.30;;;;;;5008269;28;20203;-67
2021/05/26 02:17:35;;;;;;;3.95;0.60;;;11.80;98.20;;;;;;4996259;28;20175;-66
2021/05/26 02:20:01;;;;;;;3.50;0.90;;;11.80;98.30;;;;;;5016028;28;20239;-66
2021/05/26 02:22:27;;;;;;;3.60;0.73;;;11.80;98.80;;;;;;5015331;28;20170;-65
2021/05/26 02:24:53;;;;;;;3.27;0.40;;;11.80;98.80;;;;;;5013282;28;20488;-67
2021/05/26 02:27:18;;;;;;;3.50;0.67;;;11.80;98.50;;;;;;5013972;28;20174;-66
2021/05/26 02:29:44;;;;;;;3.60;0.57;;;11.70;98.30;;;;;;5030746;28;20216;-66
2021/05/26 02:32:11;;;;;;;3.40;0.60;;;11.70;98.00;;;;;;5033525;28;20198;-65
2021/05/26 02:34:37;;;;;;;3.30;0.50;;;11.70;98.30;;;;;;5016171;28;20516;-67
2021/05/26 02:37:04;;;;;;;3.20;0.40;;;11.70;98.50;;;;;;5013686;28;20210;-67
2021/05/26 02:39:30;;;;;;;3.30;0.50;;;11.70;98.80;;;;;;5028280;28;20170;-67
2021/05/26 02:41:55;;;;;;;5.15;1.10;;;11.70;98.90;;;;;;5033472;28;20201;-66
2021/05/26 02:44:21;;;;;;;4.00;1.00;;;11.70;99.40;;;;;;5016624;28;20194;-67
2021/05/26 02:46:48;;;;;;;6.97;0.80;;;11.60;99.50;;;;;;4995783;28;20187;-67
2021/05/26 02:49:14;;;;;;;3.28;0.40;;;11.60;99.70;;;;;;5025595;28;20173;-67
2021/05/26 02:51:40;;;;;;;3.97;0.80;;;11.60;99.80;;;;;;5036700;28;20177;-67
2021/05/26 02:54:06;;;;;;;3.30;0.50;;;11.60;99.90;;;;;;5026161;28;20437;-65
2021/05/26 02:56:34;;;;;;;3.40;0.60;;;11.60;99.90;;;;;;5017318;28;20890;-65
2021/05/26 02:58:59;;;;;;;3.70;0.70;;;11.60;99.90;;;;;;5025305;28;20170;-65
2021/05/26 03:01:25;;;;;;;3.30;0.53;;;11.60;99.90;;;;;;5012407;28;20198;-67
2021/05/26 03:03:51;;;;;;;3.67;0.97;;;11.60;99.90;;;;;;5014379;28;20424;-67
2021/05/26 03:06:17;;;;;;;3.87;0.70;;;11.60;99.90;;;;;;5002789;28;20247;-66
2021/05/26 03:08:43;;;;;;;3.80;0.60;;;11.50;99.90;;;;;;5029635;28;20170;-66
2021/05/26 03:11:08;;;;;;;6.03;0.70;;;11.50;99.90;;;;;;4997956;28;20207;-65
2021/05/26 03:13:34;;;;;;;3.60;0.60;;;11.50;99.90;;;;;;5012038;28;20240;-65
2021/05/26 03:16:02;;;;;;;3.80;0.60;;;11.50;99.90;;;;;;5036389;28;20194;-66
2021/05/26 03:18:27;;;;;;;4.05;1.20;;;11.50;99.90;;;;;;5030917;28;20479;-66
2021/05/26 03:20:53;;;;;;;4.97;0.80;;;11.50;99.90;;;;;;5016940;28;20171;-66
2021/05/26 03:23:20;;;;;;;3.70;0.80;;;11.50;99.90;;;;;;5016850;28;20170;-65
2021/05/26 03:25:47;;;;;;;3.90;0.60;;;11.50;99.90;;;;;;5024572;28;20308;-65
2021/05/26 03:28:13;;;;;;;3.60;0.75;;;11.40;99.90;;;;;;5034213;28;20193;-65
2021/05/26 03:30:39;;;;;;;3.97;0.70;;;11.50;99.90;;;;;;5017033;28;20175;-66
2021/05/26 03:33:06;;;;;;;3.50;0.40;;;11.50;99.90;;;;;;4999075;28;20544;-66
2021/05/26 03:35:32;;;;;;;4.90;0.70;;;11.40;99.90;;;;;;5036291;28;20444;-66
2021/05/26 03:37:58;;;;;;;3.60;0.55;;;11.40;99.90;;;;;;5036436;28;20178;-66
2021/05/26 03:40:25;;;;;;;10.70;1.05;;;11.40;99.90;;;;;;5017337;28;20227;-67
2021/05/26 03:42:50;;;;;;;4.25;0.95;;;11.40;99.90;;;;;;5016511;28;20167;-66
2021/05/26 03:45:16;;;;;;;4.10;0.70;;;11.40;99.90;;;;;;5021213;28;20330;-66
2021/05/26 03:47:42;;;;;;;3.90;0.60;;;11.40;99.90;;;;;;4997097;28;20238;-67
2021/05/26 03:50:12;;;;;;;4.00;0.70;;;11.30;99.90;;;;;;5029974;28;20171;-66
2021/05/26 03:52:46;;;;;;;5.95;0.80;;;11.40;99.90;;;;;;5036748;28;20213;-66
2021/05/26 03:55:15;;;;;;;4.00;0.50;;;11.40;99.90;;;;;;5020425;28;20207;-66
2021/05/26 03:57:41;;;;;;;4.18;0.90;;;11.30;99.90;;;;;;5033002;28;20184;-67
2021/05/26 04:00:11;;;;;;;3.72;0.60;;;11.30;99.90;;;;;;5010639;28;20572;-66
2021/05/26 04:02:37;;;;;;;5.72;0.88;;;11.40;99.90;;;;;;5028799;28;20182;-66
2021/05/26 04:05:04;;;;;;;4.80;1.15;;;11.40;99.90;;;;;;5028118;28;20234;-67
2021/05/26 04:07:29;;;;;;;3.85;0.75;;;11.50;99.90;;;;;;5017371;28;20178;-67
2021/05/26 04:09:55;;;;;;;4.27;0.50;;;11.50;99.90;;;;;;5016674;28;20249;-66
2021/05/26 04:12:24;;;;;;;4.00;0.60;;;11.50;99.90;;;;;;5016596;28;20167;-68
2021/05/26 04:14:50;;;;;;;3.90;0.52;;;11.50;99.90;;;;;;5015022;28;20522;-67
2021/05/26 04:17:16;;;;;;;3.60;0.50;;;11.50;99.90;;;;;;5015962;28;20194;-67
2021/05/26 04:19:41;;;;;;;3.90;0.57;;;11.50;99.90;;;;;;5034447;28;20528;-67
2021/05/26 04:22:07;;;;;;;4.17;0.60;;;11.50;99.90;;;;;;5035650;28;20169;-67
2021/05/26 04:24:33;;;;;;;7.60;1.73;;;11.60;99.90;;;;;;5033946;28;20272;-67
2021/05/26 04:26:58;;;;;;;3.67;0.47;;;11.60;99.90;;;;;;5035771;28;20174;-66
2021/05/26 04:29:24;;;;;;;4.23;0.90;;;11.50;99.90;;;;;;5018859;28;20240;-67
2021/05/26 04:31:50;;;;;;;3.87;0.70;;;11.50;99.90;;;;;;5015809;28;20310;-67
2021/05/26 04:34:16;;;;;;;4.37;0.93;;;11.50;99.90;;;;;;5029692;28;20201;-67
2021/05/26 04:36:42;;;;;;;4.03;0.80;;;11.50;99.90;;;;;;4998923;28;20476;-67
2021/05/26 04:39:08;;;;;;;3.97;0.80;;;11.40;99.90;;;;;;5022018;28;20655;-67
2021/05/26 04:41:34;;;;;;;4.40;0.90;;;11.40;99.90;;;;;;5035418;28;20166;-66
2021/05/26 04:44:00;;;;;;;4.57;0.80;;;11.40;99.90;;;;;;5013897;28;20590;-67
2021/05/26 04:46:26;;;;;;;4.03;0.73;;;11.40;99.90;;;;;;5030418;28;20239;-67
2021/05/26 04:48:51;;;;;;;3.90;0.60;;;11.50;99.90;;;;;;5025509;28;20480;-66
2021/05/26 04:51:17;;;;;;;4.50;0.80;;;11.50;99.90;;;;;;4996987;28;20179;-67
2021/05/26 04:53:43;;;;;;;4.37;0.67;;;11.50;99.90;;;;;;5010310;28;20178;-66
2021/05/26 04:56:08;;;;;;;4.00;0.70;;;11.40;99.90;;;;;;5035180;28;20202;-67
2021/05/26 04:58:34;;;;;;;3.60;0.40;;;11.50;99.90;;;;;;5029235;28;20174;-67
2021/05/26 05:01:00;;;;;;;3.60;0.50;;;11.40;99.90;;;;;;5015232;28;20171;-67
2021/05/26 05:03:25;;;;;;;3.93;0.50;;;11.40;99.90;;;;;;5019573;28;20167;-67
2021/05/26 05:05:51;;;;;;;4.03;1.00;;;11.40;99.90;;;;;;5013792;28;20972;-67
2021/05/26 05:08:17;;;;;;;4.03;0.97;;;11.40;99.90;;;;;;5004909;28;20179;-66
2021/05/26 05:10:42;;;;;;;3.80;0.50;;;11.40;99.90;;;;;;5015050;28;20170;-66
2021/05/26 05:13:08;;;;;;;3.77;0.63;;;11.40;99.90;;;;;;5018478;28;20227;-67
2021/05/26 05:15:34;;;;;;;4.10;0.67;;;11.30;99.90;;;;;;5032626;28;20278;-67
2021/05/26 05:17:59;;;;;;;4.13;0.97;;;11.30;99.90;;;;;;5031455;28;20430;-67
2021/05/26 05:20:26;;;;;;;3.70;0.50;;;11.30;99.90;;;;;;5014808;28;20676;-66
2021/05/26 05:22:53;;;;;;;6.07;0.88;;;11.30;99.90;;;;;;5015461;28;20217;-67
2021/05/26 05:25:20;;;;;;;3.85;0.73;;;11.30;99.90;;;;;;5034741;28;20521;-66
2021/05/26 05:27:46;;;;;;;3.95;0.70;;;11.30;99.90;;;;;;5034238;28;20178;-67
2021/05/26 05:30:12;;;;;;;4.10;0.63;;;11.20;99.90;;;;;;5014763;28;20184;-66
2021/05/26 05:32:38;;;;;;;3.97;0.60;;;11.20;99.90;;;;;;5027980;28;20649;-67
2021/05/26 05:35:04;;;;;;;3.90;0.60;;;11.20;99.90;;;;;;5013444;28;20240;-67
2021/05/26 05:37:30;;;;;;;4.47;1.05;;;11.10;99.90;;;;;;5016832;28;20266;-67
2021/05/26 05:39:56;;;;;;;3.90;0.57;;;11.10;99.90;;;;;;5019413;28;20278;-68
2021/05/26 05:42:21;;;;;;;4.10;0.80;;;11.10;99.90;;;;;;5014472;28;20540;-66
2021/05/26 05:44:47;;;;;;;3.83;0.57;;;11.00;99.90;;;;;;5003617;28;20191;-67
2021/05/26 05:47:13;;;;;;;3.83;0.50;;;11.00;99.90;;;;;;5033938;28;20181;-67
2021/05/26 05:49:39;;;;;;;4.35;0.52;;;11.00;99.90;;;;;;5031091;28;20932;-69
2021/05/26 05:52:08;;;;;;;5.83;0.93;;;11.10;99.90;;;;;;5032554;28;20182;-69
2021/05/26 05:54:34;;;;;;;5.47;1.05;;;11.10;99.90;;;;;;5015862;28;20989;-68
2021/05/26 05:57:00;;;;;;;4.13;0.73;;;11.10;99.90;;;;;;5016398;28;20259;-67
2021/05/26 05:59:25;;;;;;;5.10;1.20;;;11.10;99.90;;;;;;5014058;28;20257;-68
2021/05/26 06:01:51;;;;;;;5.10;1.17;;;11.20;99.90;;;;;;5022811;28;20245;-69
2021/05/26 06:04:16;;;;;;;4.83;1.20;;;11.10;99.90;;;;;;5015811;28;20209;-68
2021/05/26 06:06:42;;;;;;;7.90;1.43;;;11.20;99.90;;;;;;5028401;28;20183;-68
2021/05/26 06:09:08;;;;;;;4.07;0.57;;;11.20;99.90;;;;;;5013983;28;20648;-68
2021/05/26 06:11:33;;;;;;;4.63;1.10;;;11.20;99.90;;;;;;5013925;28;20257;-68
2021/05/26 06:14:06;;;;;;;4.50;0.83;;;11.20;99.90;;;;;;5012911;28;20282;-68
2021/05/26 06:16:36;;;;;;;5.70;1.50;;;11.20;99.90;;;;;;5013629;28;20206;-68
2021/05/26 06:19:03;;;;;;;4.55;1.00;;;11.10;99.90;;;;;;5013253;28;20201;-66
2021/05/26 06:21:29;;;;;;;4.40;0.75;;;11.10;99.90;;;;;;4993939;28;20175;-65
2021/05/26 06:23:55;;;;;;;5.38;0.75;;;11.20;99.90;;;;;;4993449;28;20196;-68
2021/05/26 06:26:21;;;;;;;4.83;0.90;;;11.20;99.90;;;;;;4993855;28;20180;-66
2021/05/26 06:28:47;;;;;;;4.40;0.80;;;11.20;99.90;;;;;;4993871;28;20183;-67
2021/05/26 06:31:13;;;;;;;6.83;0.80;;;11.30;99.90;;;;;;4993911;28;20434;-67
2021/05/26 06:33:42;;;;;;;5.30;1.17;;;11.30;99.90;;;;;;4993498;28;20183;-66
2021/05/26 06:36:11;;;;;;;4.25;0.50;;;11.30;99.90;;;;;;4994005;28;20198;-66
2021/05/26 06:38:37;;;;;;;4.38;0.60;;;11.50;99.90;;;;;;4993666;28;20178;-67
2021/05/26 06:41:03;;;;;;;4.40;0.57;;;11.60;99.90;;;;;;4992592;28;20266;-66
2021/05/26 06:43:29;;;;;;;5.03;0.90;;;11.60;99.90;;;;;;5003324;28;20211;-65
2021/05/26 06:45:55;;;;;;;6.50;0.75;;;11.60;99.90;;;;;;5012712;28;20442;-66
2021/05/26 06:48:21;;;;;;;6.10;1.23;;;11.50;99.90;;;;;;5013267;28;20173;-67
2021/05/26 06:50:47;;;;;;;4.60;0.80;;;11.50;99.90;;;;;;5013350;28;20410;-65
2021/05/26 06:53:13;;;;;;;4.30;0.60;;;11.60;99.90;;;;;;5012753;28;20170;-66
2021/05/26 06:55:38;;;;;;;5.67;0.90;;;11.60;99.90;;;;;;5013003;28;20202;-67
2021/05/26 06:58:04;;;;;;;4.50;0.80;;;11.60;99.90;;;;;;5012503;28;20564;-65
2021/05/26 07:00:30;;;;;;;5.70;1.20;;;11.60;99.90;;;;;;5013136;28;20167;-68
2021/05/26 07:02:56;;;;;;;4.80;0.77;;;11.60;99.90;;;;;;5012967;28;20165;-65
2021/05/26 07:05:22;;;;;;;12.85;2.45;;;11.70;99.90;;;;;;5012622;28;20751;-68
2021/05/26 07:07:48;;;;;;;4.80;1.10;;;11.70;99.90;;;;;;4993746;28;20191;-66
2021/05/26 07:10:16;;;;;;;5.20;1.30;;;11.80;99.90;;;;;;4977877;28;20194;-68
2021/05/26 07:12:42;;;;;;;4.30;0.60;;;11.90;99.90;;;;;;4993397;28;20210;-67
2021/05/26 07:15:11;;;;;;;4.80;0.83;;;11.90;99.90;;;;;;4993204;28;20678;-67
2021/05/26 07:17:36;;;;;;;6.15;1.20;;;12.00;99.90;;;;;;4993496;28;20411;-66
2021/05/26 07:20:03;;;;;;;5.30;1.30;;;12.10;99.90;;;;;;4993548;28;20171;-68
2021/05/26 07:22:29;;;;;;;4.60;0.93;;;12.10;99.90;;;;;;4993304;28;20200;-67
2021/05/26 07:24:55;;;;;;;5.47;0.70;;;12.20;99.90;;;;;;4994529;28;20190;-66
2021/05/26 07:27:21;;;;;;;4.50;0.60;;;12.30;99.90;;;;;;4998035;28;20422;-70
2021/05/26 07:29:46;;;;;;;5.53;0.90;;;12.20;99.90;;;;;;4993257;28;20175;-65
2021/05/26 07:32:12;;;;;;;5.23;1.00;;;12.30;99.90;;;;;;4993446;28;20180;-67
2021/05/26 07:34:38;;;;;;;5.20;0.80;;;12.30;99.90;;;;;;4993187;28;20210;-66
2021/05/26 07:37:03;;;;;;;4.40;0.87;;;12.40;99.90;;;;;;4995301;28;20298;-66
2021/05/26 07:39:34;;;;;;;5.10;0.93;;;12.50;99.90;;;;;;5013413;28;20185;-66
2021/05/26 07:42:00;;;;;;;6.83;1.30;;;12.50;99.90;;;;;;4998966;28;20254;-66
2021/05/26 07:44:26;;;;;;;6.00;1.92;;;12.50;99.90;;;;;;5015657;28;20438;-66
2021/05/26 07:46:54;;;;;;;10.43;1.70;;;12.60;99.90;;;;;;5016589;28;20183;-67
2021/05/26 07:49:23;;;;;;;7.70;1.50;;;12.60;99.90;;;;;;5016347;28;20174;-66
2021/05/26 07:51:54;;;;;;;7.80;1.15;;;12.70;99.90;;;;;;4997195;28;20183;-67
2021/05/26 07:54:24;;;;;;;4.70;0.90;;;12.80;99.90;;;;;;4996257;28;20673;-71
2021/05/26 07:56:50;;;;;;;4.60;0.83;;;12.80;99.90;;;;;;4996858;28;20566;-69
2021/05/26 07:59:16;;;;;;;5.55;1.10;;;12.80;99.90;;;;;;4995005;28;20426;-69
2021/05/26 08:01:42;;;;;;;5.00;1.30;;;12.90;99.90;;;;;;4996539;28;20169;-69
2021/05/26 08:04:11;;;;;;;5.60;1.33;;;12.90;99.90;;;;;;4995848;28;20474;-68
2021/05/26 08:06:36;;;;;;;5.07;1.07;;;12.90;99.90;;;;;;4995968;28;20833;-68
2021/05/26 08:09:03;;;;;;;4.97;1.40;;;12.90;99.90;;;;;;4996411;28;20499;-68
2021/05/26 08:11:29;;;;;;;5.17;1.00;;;12.90;99.90;;;;;;4995227;28;20179;-67
2021/05/26 08:13:57;;;;;;;4.38;0.85;;;13.00;99.90;;;;;;5004406;28;20442;-68
2021/05/26 08:16:23;;;;;;;5.80;1.00;;;13.00;99.90;;;;;;5015647;28;20235;-67
2021/05/26 08:18:49;;;;;;;8.60;0.93;;;12.90;99.90;;;;;;5015795;28;20429;-68
2021/05/26 08:21:15;;;;;;;6.10;1.10;;;12.90;99.90;;;;;;5015283;28;20406;-67
2021/05/26 08:23:42;;;;;;;5.00;1.00;;;12.90;99.90;;;;;;5015176;28;20406;-67
2021/05/26 08:26:23;;;;;;;4.97;0.70;;;12.90;99.90;;;;;;5015687;28;20470;-67
2021/05/26 08:28:53;;;;;;;4.10;0.80;;;12.90;99.90;;;;;;5015771;28;20187;-67
2021/05/26 08:31:20;;;;;;;4.20;1.00;;;12.90;99.90;;;;;;5015738;28;20509;-69
2021/05/26 08:33:46;;;;;;;6.30;1.00;;;12.90;99.90;;;;;;5015140;28;20421;-67
2021/05/26 08:36:12;;;;;;;4.60;0.70;;;12.90;99.90;;;;;;5001355;28;20466;-68
2021/05/26 08:38:38;;;;;;;4.97;1.10;;;12.90;99.90;;;;;;5003683;28;20917;-67
2021/05/26 08:41:09;;;;;;;4.10;0.70;;;12.90;99.90;;;;;;5015409;28;20943;-67
2021/05/26 08:43:37;;;;;;;5.30;1.80;;;12.90;99.90;;;;;;5015076;28;20801;-68
2021/05/26 08:46:04;;;;;;;8.80;1.17;;;13.00;99.90;;;;;;5015166;28;20411;-68
2021/05/26 08:48:32;;;;;;;6.27;1.47;;;13.00;99.90;;;;;;5014086;28;20405;-67
2021/05/26 08:51:00;;;;;;;7.60;1.37;;;13.00;99.90;;;;;;5014925;28;20427;-67
2021/05/26 08:53:26;;;;;;;4.50;1.20;;;13.00;99.90;;;;;;5014913;28;20451;-67
2021/05/26 08:55:53;;;;;;;4.50;0.90;;;12.90;99.90;;;;;;5015127;28;20455;-67
2021/05/26 08:58:19;;;;;;;5.37;0.87;;;13.00;99.90;;;;;;5014988;28;20788;-67
2021/05/26 09:00:45;;;;;;;5.57;2.10;;;12.90;99.90;;;;;;5015584;28;20412;-68
2021/05/26 09:03:10;;;;;;;6.73;1.60;;;13.00;99.90;;;;;;5014536;28;20421;-68
2021/05/26 09:05:36;;;;;;;6.43;1.33;;;13.00;99.90;;;;;;5001560;28;20219;-68
2021/05/26 09:08:17;;;;;;;5.27;1.43;;;13.00;99.90;;;;;;4995308;28;20186;-67
2021/05/26 09:11:00;;;;;;;4.33;0.80;;;12.90;99.90;;;;;;4995410;28;20484;-68
2021/05/26 09:13:44;;;;;;;4.10;0.70;;;12.90;99.90;;;;;;4994870;28;20769;-67
2021/05/26 09:16:30;;;;;;;4.50;0.80;;;12.80;99.90;;;;;;4997329;28;20476;-67
2021/05/26 09:19:04;;;;;;;8.60;1.40;;;12.80;99.90;;;;;;4995079;28;20411;-66
2021/05/26 09:21:40;;;;;;;5.37;0.90;;;12.90;99.90;;;;;;4994978;28;20531;-68
2021/05/26 09:24:21;;;;;;;4.83;1.10;;;13.00;99.90;;;;;;4994702;28;20430;-67
2021/05/26 09:27:01;;;;;;;4.03;0.67;;;13.10;99.90;;;;;;4994917;28;20413;-65
2021/05/26 09:29:32;;;;;;;3.90;0.60;;;13.10;99.90;;;;;;5009532;28;20450;-67
2021/05/26 09:32:21;;;;;;;5.13;1.00;;;13.10;99.90;;;;;;4994902;28;20405;-67
2021/05/26 09:34:58;;;;;;;5.73;2.70;;;13.10;99.90;;;;;;5004052;28;20453;-68
2021/05/26 09:37:31;;;;;;;3.80;0.57;;;13.10;99.90;;;;;;5014405;28;21091;-67
2021/05/26 09:40:04;;;;;;;4.00;0.70;;;13.10;99.90;;;;;;5013394;28;20845;-68
2021/05/26 09:42:42;;;;;;;9.53;0.97;;;13.10;99.90;;;;;;5013864;28;20744;-65
2021/05/26 09:45:26;;;;;;;4.20;0.70;;;13.10;99.90;;;;;;5014111;28;20447;-66
2021/05/26 09:47:54;;;;;;;5.27;1.10;;;13.10;99.90;;;;;;5014291;28;20398;-66
2021/05/26 09:50:33;;;;;;;8.73;1.23;;;13.20;99.90;;;;;;5014264;28;20912;-66
2021/05/26 09:53:19;;;;;;;5.90;0.90;;;13.30;99.90;;;;;;5013851;28;20411;-67
2021/05/26 09:55:48;;;;;;;4.43;1.00;;;13.40;99.90;;;;;;5012917;28;20455;-67
2021/05/26 09:58:16;;;;;;;3.90;0.50;;;13.40;99.90;;;;;;4999638;28;20433;-65
2021/05/26 10:00:43;;;;;;;7.83;2.73;;;13.40;99.90;;;;;;5012292;28;20416;-67
2021/05/26 10:03:09;;;;;;;4.37;1.13;;;13.30;99.90;;;;;;5013307;28;20416;-66
2021/05/26 10:05:35;;;;;;;4.00;0.60;;;13.30;99.90;;;;;;5013444;28;20502;-66
2021/05/26 10:08:06;;;;;;;4.47;0.80;;;13.40;99.90;;;;;;5013751;28;20196;-66
2021/05/26 10:10:32;;;;;;;5.30;1.30;;;13.40;99.90;;;;;;5013216;28;20446;-65
2021/05/26 10:13:04;;;;;;;6.40;1.20;;;13.50;99.90;;;;;;5013235;28;20418;-66
2021/05/26 10:15:33;;;;;;;5.20;1.13;;;13.60;99.90;;;;;;5013414;28;20452;-66
2021/05/26 10:18:01;;;;;;;5.13;1.03;;;13.70;99.90;;;;;;5013594;28;20910;-67
2021/05/26 10:20:38;;;;;;;4.00;0.67;;;14.00;99.90;;;;;;5013578;28;20423;-65
2021/05/26 10:23:06;;;;;;;5.83;0.70;;;14.00;99.90;;;;;;4995579;28;20422;-67
2021/05/26 10:25:41;;;;;;;4.03;0.70;;;14.10;99.90;;;;;;5012828;28;20451;-67
2021/05/26 10:28:06;;;;;;;4.10;0.50;;;14.10;99.90;;;;;;5013323;28;20504;-66
2021/05/26 10:30:47;;;;;;;4.20;0.63;;;14.20;99.90;;;;;;5013261;28;20509;-66
2021/05/26 10:33:13;;;;;;;4.03;0.60;;;14.30;99.90;;;;;;4995619;28;20177;-67
2021/05/26 10:35:59;;;;;;;3.97;0.70;;;14.30;99.90;;;;;;5013302;28;20481;-67
2021/05/26 10:38:25;;;;;;;3.87;0.53;;;14.30;99.90;;;;;;5013314;28;20529;-67
2021/05/26 10:40:52;;;;;;;4.33;0.50;;;14.40;99.90;;;;;;5013237;28;20488;-68
2021/05/26 10:43:19;;;;;;;3.93;0.63;;;14.60;99.90;;;;;;5012999;28;20489;-67
2021/05/26 10:45:46;;;;;;;6.27;1.40;;;14.60;99.90;;;;;;5013424;28;20441;-67
2021/05/26 10:48:12;;;;;;;3.80;0.50;;;14.50;99.90;;;;;;5012554;28;20487;-68
2021/05/26 10:50:52;;;;;;;4.37;0.60;;;14.60;99.90;;;;;;5013135;28;20405;-67
2021/05/26 10:53:18;;;;;;;3.90;0.50;;;14.50;99.90;;;;;;5012789;28;20503;-66
2021/05/26 10:55:52;;;;;;;4.20;0.50;;;14.50;99.90;;;;;;5013385;28;20448;-66
2021/05/26 10:58:25;;;;;;;3.70;0.57;;;14.60;99.90;;;;;;5013635;28;20437;-67
2021/05/26 11:00:56;;;;;;;3.70;0.50;;;14.70;99.90;;;;;;5013608;28;20481;-67
2021/05/26 11:03:25;;;;;;;5.00;0.60;;;14.80;99.90;;;;;;5013397;28;20439;-68
2021/05/26 11:05:56;;;;;;;3.77;0.77;;;15.00;99.90;;;;;;5013357;28;20539;-65
2021/05/26 11:08:35;;;;;;;3.60;0.43;;;15.10;99.90;;;;;;5013406;28;20424;-68
2021/05/26 11:11:26;;;;;;;3.50;0.40;;;15.30;99.70;;;;;;5013045;28;20432;-66
2021/05/26 11:16:39;;;;;;;3.60;0.57;;;15.30;98.40;;;;;;4997713;28;20594;-66
2021/05/26 11:19:13;;;;;;;3.67;0.40;;;15.20;98.40;;;;;;4997476;28;20444;-67
2021/05/26 11:21:53;;;;;;;3.50;0.50;;;15.10;98.60;;;;;;4997591;28;20417;-66
2021/05/26 11:24:19;;;;;;;4.03;1.20;;;15.10;98.70;;;;;;4995580;28;20990;-67
2021/05/26 11:26:45;;;;;;;4.30;1.07;;;15.10;99.10;;;;;;4997094;28;20421;-67
2021/05/26 11:29:11;;;;;;;3.50;0.50;;;15.00;99.80;;;;;;4997260;28;20414;-66
2021/05/26 11:31:37;;;;;;;3.50;0.50;;;15.00;99.70;;;;;;4997307;28;20917;-67
2021/05/26 11:34:07;;;;;;;4.47;0.80;;;14.90;99.50;;;;;;4997166;28;20199;-67
2021/05/26 11:36:41;;;;;;;3.50;0.40;;;14.80;99.70;;;;;;4997157;28;20445;-66
2021/05/26 11:39:17;;;;;;;3.60;0.50;;;14.70;99.90;;;;;;4996988;28;20417;-67
2021/05/26 11:41:43;;;;;;;3.40;0.43;;;14.60;99.90;;;;;;5011864;28;20548;-66
2021/05/26 11:44:09;;;;;;;3.40;0.40;;;14.70;99.90;;;;;;5015135;28;20449;-67
2021/05/26 11:46:35;;;;;;;3.63;0.50;;;14.70;99.90;;;;;;5016743;28;20397;-66
2021/05/26 11:49:24;;;;;;;4.07;0.70;;;14.70;99.90;;;;;;5016864;28;20775;-67
2021/05/26 11:52:01;;;;;;;3.70;0.77;;;14.60;99.90;;;;;;5016616;28;20178;-67
2021/05/26 11:54:26;;;;;;;4.20;1.00;;;14.60;99.90;;;;;;5016308;28;20809;-67
2021/05/26 11:57:06;;;;;;;3.90;1.20;;;14.60;99.90;;;;;;5016144;28;20456;-67
2021/05/26 11:59:32;;;;;;;3.70;0.60;;;14.60;99.90;;;;;;5016501;28;20185;-66
2021/05/26 12:01:58;;;;;;;3.93;0.60;;;14.60;99.90;;;;;;5016035;28;20412;-67
2021/05/26 12:04:26;;;;;;;4.50;0.80;;;14.60;99.90;;;;;;5015981;28;20698;-68
2021/05/26 12:06:54;;;;;;;3.73;0.63;;;14.60;99.90;;;;;;5016149;28;20235;-66
2021/05/26 12:09:26;;;;;;;3.50;0.60;;;14.60;99.90;;;;;;5015354;28;20428;-66
2021/05/26 12:11:52;;;;;;;3.57;0.60;;;14.70;99.90;;;;;;4996727;28;20437;-67
2021/05/26 12:14:31;;;;;;;3.43;0.50;;;14.80;99.90;;;;;;4996280;28;20448;-67
2021/05/26 12:16:59;;;;;;;5.00;0.60;;;15.00;99.90;;;;;;4996765;28;20205;-66
2021/05/26 12:19:31;;;;;;;3.70;0.60;;;15.10;99.80;;;;;;4998241;28;20482;-68
2021/05/26 12:22:19;;;;;;;3.80;0.53;;;15.20;99.60;;;;;;5015968;28;20497;-66
2021/05/26 12:24:55;;;;;;;4.10;0.80;;;15.30;99.00;;;;;;5015545;28;20433;-66
2021/05/26 12:27:37;;;;;;;3.70;0.70;;;15.40;99.50;;;;;;4998368;28;20412;-66
2021/05/26 12:30:22;;;;;;;3.90;0.73;;;15.50;99.10;;;;;;5015775;28;20405;-67
2021/05/26 12:32:50;;;;;;;3.80;0.63;;;15.60;98.80;;;;;;5014747;28;20484;-66
2021/05/26 12:35:22;;;;;;;4.33;0.60;;;15.70;98.50;;;;;;5008084;28;20447;-65
2021/05/26 12:37:50;;;;;;;3.70;0.90;;;15.80;98.50;;;;;;4996175;28;20445;-67
2021/05/26 12:40:28;;;;;;;3.80;0.80;;;16.00;98.90;;;;;;4996380;28;20777;-65
2021/05/26 12:42:55;;;;;;;4.20;0.90;;;16.20;97.90;;;;;;4994090;28;20414;-66
2021/05/26 12:45:32;;;;;;;3.90;1.00;;;16.40;98.20;;;;;;4995722;28;20444;-66
2021/05/26 12:47:59;;;;;;;3.67;0.73;;;16.60;97.70;;;;;;5002693;28;20429;-67
2021/05/26 12:50:28;;;;;;;4.20;0.70;;;16.60;97.00;;;;;;5014306;28;20425;-66
2021/05/26 12:53:06;;;;;;;3.77;0.57;;;16.60;96.70;;;;;;5014954;28;20422;-67